Wednesday, September 19, 2018, 3:56 AM GMT
Back to Local

CXMY, Malay Falls , N. S.

Location: , , Canada Lat: 44.983
Local Time: 3:56 AM GMT ( 3:56 GMT) Lon: -62.483
Time Zone: GMT Elev: 131 ft

Show me the last for .
Show Coded

Time T Td Feel RH Dir Speed Gust Alt SLP Vis Weather Sky Remarks
2018-09-19 03:00 61 60 - 96 - - - - - 0 None
2018-09-19 02:00 62 61 - 96 - - - - - 0 None
2018-09-19 01:00 63 62 - 96 - - - - - 0 None
2018-09-19 00:00 65 64 - 96 - - - - - 0 None
2018-09-18 23:00 68 66 - 91 - - - - - 0 None
2018-09-18 22:00 71 67 76 87 - - - - - 0 None
2018-09-18 21:00 72 67 76 84 - - - - - 0 None
2018-09-18 20:00 75 68 78 80 - - - - - 0 None
2018-09-18 19:00 75 69 79 79 - - - - - 0 None
2018-09-18 18:00 79 68 82 69 - - - - - 0 None
2018-09-18 17:00 81 66 84 60 - - - - - 0 None
2018-09-18 16:00 80 67 83 63 - - - - - 0 None
2018-09-18 15:00 75 66 78 75 - - - - - 0 None
2018-09-18 14:00 72 65 76 78 - - - - - 0 None
2018-09-18 13:00 71 64 76 81 - - - - - 0 None
2018-09-18 12:00 67 62 - 83 - - - - - 0 None
2018-09-18 11:00 64 63 - 96 - - - - - 0 None
2018-09-18 10:00 62 62 - 97 - - - - - 0 None
2018-09-18 09:00 62 62 - 97 - - - - - 0 None
2018-09-18 08:00 62 60 - 92 - - - - - 0 None
2018-09-18 07:00 62 61 - 98 - - - - - 0 None
2018-09-18 06:00 60 61 - 103 - - - - - 0 None
2018-09-18 05:00 63 62 - 95 - - - - - 0 None
2018-09-18 04:00 64 61 - 92 - - - - - 0 None

Support USWX by starting your Amazon purchase here.